createdAt,value
2022-08-03T00:01:02.918Z,54.78
2022-08-03T00:03:27.321Z,54.64
2022-08-03T00:06:03.765Z,54.40
2022-08-03T00:08:28.022Z,54.08
2022-08-03T00:10:51.092Z,54.19
2022-08-03T00:13:14.223Z,54.52
2022-08-03T00:15:37.244Z,54.41
2022-08-03T00:18:00.289Z,53.92
2022-08-03T00:20:24.788Z,53.58
2022-08-03T00:22:47.802Z,54.17
2022-08-03T00:25:10.975Z,53.88
2022-08-03T00:27:33.986Z,53.97
2022-08-03T00:30:00.043Z,53.55
2022-08-03T00:32:24.153Z,53.19
2022-08-03T00:34:57.603Z,52.83
2022-08-03T00:37:22.910Z,52.46
2022-08-03T00:40:04.369Z,52.50
2022-08-03T00:42:28.702Z,52.24
2022-08-03T00:44:51.846Z,52.03
2022-08-03T00:47:14.791Z,52.10
2022-08-03T00:49:37.978Z,52.12
2022-08-03T00:52:01.018Z,51.74
2022-08-03T00:54:33.827Z,51.73
2022-08-03T00:57:00.010Z,51.77
2022-08-03T00:59:23.510Z,52.07
2022-08-03T01:01:46.659Z,51.97
2022-08-03T01:04:09.751Z,52.31
2022-08-03T01:06:34.234Z,51.71
2022-08-03T01:08:59.464Z,52.03
2022-08-03T01:11:26.169Z,51.98
2022-08-03T01:14:01.899Z,52.18
2022-08-03T01:16:35.873Z,51.72
2022-08-03T01:19:01.570Z,51.26
2022-08-03T01:21:26.789Z,51.50
2022-08-03T01:23:55.713Z,51.70
2022-08-03T01:26:24.473Z,51.40
2022-08-03T01:28:58.346Z,50.83
2022-08-03T01:31:23.507Z,50.69
2022-08-03T01:33:48.565Z,50.76
2022-08-03T01:36:12.966Z,50.45
2022-08-03T01:38:36.335Z,50.58
2022-08-03T01:40:59.378Z,50.43
2022-08-03T01:44:26.925Z,50.31
2022-08-03T01:46:06.741Z,49.75
2022-08-03T01:48:31.123Z,49.65
2022-08-03T01:50:54.148Z,49.83
2022-08-03T01:53:17.474Z,49.70
2022-08-03T01:55:40.519Z,49.90
2022-08-03T01:58:04.853Z,49.92
2022-08-03T02:00:29.448Z,50.15
2022-08-03T02:02:52.545Z,49.98
2022-08-03T02:05:17.041Z,49.96
2022-08-03T02:07:41.205Z,50.31
2022-08-03T02:10:04.943Z,50.91
2022-08-03T02:12:28.358Z,51.22
2022-08-03T02:14:51.810Z,51.05
2022-08-03T02:17:14.825Z,51.46
2022-08-03T02:19:38.157Z,51.61
2022-08-03T02:22:02.514Z,51.53
2022-08-03T02:24:25.670Z,51.73
2022-08-03T02:26:48.841Z,51.10
2022-08-03T02:29:12.928Z,50.96
2022-08-03T02:31:36.066Z,51.24
2022-08-03T02:34:00.363Z,51.24
2022-08-03T02:36:24.737Z,51.29
2022-08-03T02:38:50.504Z,51.39
2022-08-03T02:41:15.030Z,51.20
2022-08-03T02:43:39.192Z,50.74
2022-08-03T02:46:21.739Z,51.08
2022-08-03T02:48:45.914Z,51.03
2022-08-03T02:51:08.984Z,50.27
2022-08-03T02:53:32.032Z,51.03
2022-08-03T02:55:56.389Z,50.20
2022-08-03T02:58:19.804Z,50.96
2022-08-03T03:00:42.991Z,50.57
2022-08-03T03:03:06.257Z,50.29
2022-08-03T03:05:53.732Z,50.44
2022-08-03T03:08:18.816Z,50.25
2022-08-03T03:10:43.988Z,50.77
2022-08-03T03:13:08.462Z,49.80
2022-08-03T03:15:32.926Z,49.13
2022-08-03T03:17:55.995Z,49.78
2022-08-03T03:20:29.357Z,50.16
2022-08-03T03:22:53.398Z,49.80
2022-08-03T03:25:16.420Z,50.47
2022-08-03T03:27:39.645Z,50.04
2022-08-03T03:30:04.453Z,49.74
2022-08-03T03:32:27.957Z,49.36
2022-08-03T03:34:50.991Z,49.56
2022-08-03T03:37:14.237Z,49.37
2022-08-03T03:39:37.459Z,49.62
2022-08-03T03:42:01.168Z,49.45
2022-08-03T03:44:25.961Z,48.56
2022-08-03T03:46:50.479Z,48.80
2022-08-03T03:49:13.601Z,48.70
2022-08-03T03:51:36.754Z,48.25
2022-08-03T03:53:59.875Z,48.25
2022-08-03T03:56:22.919Z,48.25
2022-08-03T03:58:46.035Z,48.11
2022-08-03T04:01:09.965Z,48.04
2022-08-03T04:03:34.510Z,47.92
2022-08-03T04:06:14.629Z,48.09
2022-08-03T04:08:54.902Z,48.13
2022-08-03T04:11:19.271Z,47.90
2022-08-03T04:13:43.706Z,47.95
2022-08-03T04:16:06.723Z,48.10
2022-08-03T04:18:30.692Z,48.06
2022-08-03T04:20:55.087Z,48.13
2022-08-03T04:23:18.435Z,48.25
2022-08-03T04:25:41.448Z,48.87
2022-08-03T04:28:28.308Z,48.30
2022-08-03T04:30:49.030Z,47.78
2022-08-03T04:33:12.013Z,48.11
2022-08-03T04:36:01.731Z,48.35
2022-08-03T04:38:20.698Z,48.16
2022-08-03T04:40:44.117Z,47.48
2022-08-03T04:43:07.133Z,48.36
2022-08-03T04:45:30.282Z,48.36
2022-08-03T04:47:53.285Z,48.43
2022-08-03T04:50:21.005Z,48.72
2022-08-03T04:53:00.142Z,47.84
2022-08-03T04:55:28.712Z,47.80
2022-08-03T04:57:51.734Z,47.61
2022-08-03T05:00:15.357Z,47.66
2022-08-03T05:02:38.418Z,47.71
2022-08-03T05:05:01.536Z,47.72
2022-08-03T05:07:24.973Z,48.07
2022-08-03T05:09:50.652Z,47.66
2022-08-03T05:12:17.730Z,47.86
2022-08-03T05:14:40.877Z,47.71
2022-08-03T05:17:03.977Z,47.62
2022-08-03T05:19:27.014Z,47.11
2022-08-03T05:21:52.030Z,47.04
2022-08-03T05:24:15.782Z,47.24
2022-08-03T05:26:38.851Z,47.32
2022-08-03T05:29:03.258Z,47.13
2022-08-03T05:31:26.254Z,46.96
2022-08-03T05:33:49.770Z,46.19
2022-08-03T05:36:12.778Z,46.64
2022-08-03T05:38:36.407Z,46.52
2022-08-03T05:41:22.856Z,46.25
2022-08-03T05:43:42.422Z,45.75
2022-08-03T05:46:12.073Z,45.83
2022-08-03T05:48:36.165Z,45.43
2022-08-03T05:50:59.191Z,45.69
2022-08-03T05:53:22.230Z,45.14
2022-08-03T05:55:45.223Z,44.49
2022-08-03T05:58:08.329Z,44.58
2022-08-03T06:00:34.418Z,44.83
2022-08-03T06:02:58.832Z,44.59
2022-08-03T06:05:21.817Z,44.73
2022-08-03T06:07:44.868Z,44.64
2022-08-03T06:10:35.573Z,44.96
2022-08-03T06:12:52.666Z,44.98
2022-08-03T06:15:16.678Z,44.89
2022-08-03T06:17:48.867Z,44.48
2022-08-03T06:20:13.802Z,44.70
2022-08-03T06:22:37.072Z,44.14
2022-08-03T06:25:13.746Z,44.29
2022-08-03T06:27:40.082Z,44.09
2022-08-03T06:30:03.151Z,44.02
2022-08-03T06:32:26.265Z,43.76
2022-08-03T06:34:49.267Z,43.71
2022-08-03T06:37:13.659Z,43.42
2022-08-03T06:39:36.665Z,43.09
2022-08-03T06:41:59.687Z,42.92
2022-08-03T06:44:22.769Z,42.72
2022-08-03T06:46:45.806Z,42.74
2022-08-03T06:49:08.969Z,42.68
2022-08-03T06:52:05.110Z,42.58
2022-08-03T06:54:16.710Z,42.65
2022-08-03T06:56:39.769Z,42.38
2022-08-03T06:59:02.874Z,42.23
2022-08-03T07:01:25.942Z,42.21
2022-08-03T07:03:52.568Z,42.28
2022-08-03T07:06:15.713Z,42.42
2022-08-03T07:08:38.813Z,41.98
2022-08-03T07:11:03.256Z,41.94
2022-08-03T07:13:27.443Z,41.70
2022-08-03T07:15:55.259Z,41.51
2022-08-03T07:18:29.601Z,41.31
2022-08-03T07:20:53.292Z,41.22
2022-08-03T07:23:19.306Z,41.21
2022-08-03T07:25:42.500Z,40.80
2022-08-03T07:28:08.344Z,41.17
2022-08-03T07:30:31.392Z,41.09
2022-08-03T07:32:54.524Z,40.09
2022-08-03T07:35:24.402Z,40.04
2022-08-03T07:37:54.957Z,39.84
2022-08-03T07:40:18.431Z,39.56
2022-08-03T07:42:41.454Z,39.81
2022-08-03T07:45:06.350Z,40.15
2022-08-03T07:47:34.914Z,39.86
2022-08-03T07:49:58.954Z,40.09
2022-08-03T07:52:39.488Z,39.69
2022-08-03T07:55:02.612Z,39.65
2022-08-03T07:57:25.621Z,39.03
2022-08-03T07:59:56.800Z,38.67
2022-08-03T08:02:36.417Z,38.76
2022-08-03T08:05:04.967Z,38.91
2022-08-03T08:07:28.726Z,38.94
2022-08-03T08:09:51.810Z,39.12
2022-08-03T08:12:15.345Z,39.18
2022-08-03T08:14:39.030Z,38.98
2022-08-03T08:17:05.637Z,38.83
2022-08-03T08:19:31.702Z,38.93
2022-08-03T08:22:02.518Z,38.42
2022-08-03T08:24:26.063Z,38.81
2022-08-03T08:26:49.312Z,38.62
2022-08-03T08:29:12.462Z,38.50
2022-08-03T08:31:35.588Z,38.53
2022-08-03T08:34:04.037Z,38.22
2022-08-03T08:36:29.128Z,37.96
2022-08-03T08:38:52.177Z,38.03
2022-08-03T08:41:15.555Z,37.99
2022-08-03T08:43:38.620Z,37.94
2022-08-03T08:46:01.707Z,38.30
2022-08-03T08:48:25.876Z,38.25
2022-08-03T08:50:48.864Z,37.52
2022-08-03T08:53:18.222Z,37.61
2022-08-03T08:55:58.789Z,37.97
2022-08-03T08:58:23.090Z,38.30
2022-08-03T09:00:46.169Z,38.18
2022-08-03T09:03:09.393Z,38.02
2022-08-03T09:05:55.052Z,37.41
2022-08-03T09:08:17.288Z,36.82
2022-08-03T09:10:40.435Z,36.51
2022-08-03T09:13:03.478Z,36.43
2022-08-03T09:15:26.969Z,36.42
2022-08-03T09:17:51.207Z,36.48
2022-08-03T09:20:14.643Z,36.32
2022-08-03T09:22:37.654Z,36.88
2022-08-03T09:25:23.508Z,36.12
2022-08-03T09:27:46.567Z,36.11
2022-08-03T09:30:32.219Z,35.75
2022-08-03T09:33:01.690Z,35.75
2022-08-03T09:35:51.696Z,35.87
2022-08-03T09:38:12.601Z,35.58
2022-08-03T09:40:38.669Z,35.75
2022-08-03T09:43:01.818Z,35.37
2022-08-03T09:45:27.970Z,35.35
2022-08-03T09:47:51.078Z,35.31
2022-08-03T09:50:14.125Z,35.82
2022-08-03T09:52:49.333Z,36.07
2022-08-03T09:56:32.737Z,37.01
2022-08-03T09:58:06.482Z,37.25
2022-08-03T10:00:29.646Z,38.21
2022-08-03T10:02:52.934Z,39.28
2022-08-03T10:05:19.687Z,39.73
2022-08-03T10:07:46.182Z,40.69
2022-08-03T10:10:30.821Z,41.66
2022-08-03T10:12:53.736Z,41.93
2022-08-03T10:16:21.969Z,42.06
2022-08-03T10:18:01.151Z,42.26
2022-08-03T10:20:24.266Z,42.95
2022-08-03T10:22:47.298Z,44.11
2022-08-03T10:25:10.861Z,44.83
2022-08-03T10:27:37.999Z,45.79
2022-08-03T10:30:03.014Z,46.09
2022-08-03T10:32:29.389Z,46.77
2022-08-03T10:35:00.050Z,47.01
2022-08-03T10:37:23.453Z,47.16
2022-08-03T10:39:54.419Z,47.73
2022-08-03T10:42:17.528Z,47.97
2022-08-03T10:44:41.309Z,48.09
2022-08-03T10:47:04.338Z,48.21
2022-08-03T10:49:34.077Z,48.51
2022-08-03T10:51:58.488Z,48.64
2022-08-03T10:54:59.489Z,48.23
2022-08-03T10:57:38.028Z,48.54
2022-08-03T11:00:03.366Z,48.61
2022-08-03T11:02:41.522Z,48.80
2022-08-03T11:05:19.419Z,48.54
2022-08-03T11:07:45.533Z,49.06
2022-08-03T11:10:30.578Z,49.01
2022-08-03T11:12:53.853Z,49.52
2022-08-03T11:15:16.872Z,49.36
2022-08-03T11:17:46.903Z,49.31
2022-08-03T11:20:19.228Z,49.81
2022-08-03T11:22:54.607Z,49.66
2022-08-03T11:25:54.230Z,49.82
2022-08-03T11:28:15.727Z,49.74
2022-08-03T11:30:38.820Z,49.50
2022-08-03T11:33:02.035Z,49.57
2022-08-03T11:35:25.376Z,49.47
2022-08-03T11:38:08.907Z,49.53
2022-08-03T11:40:35.611Z,49.46
2022-08-03T11:42:58.666Z,49.39
2022-08-03T11:45:21.670Z,49.28
2022-08-03T11:47:51.119Z,49.16
2022-08-03T11:50:14.432Z,48.84
2022-08-03T11:52:38.580Z,48.83
2022-08-03T11:55:03.114Z,48.81
2022-08-03T11:59:01.191Z,48.65
2022-08-03T12:00:23.434Z,48.40
2022-08-03T12:02:55.550Z,48.37
2022-08-03T12:05:19.098Z,48.56
2022-08-03T12:08:03.084Z,48.71
2022-08-03T12:10:30.526Z,49.00
2022-08-03T12:12:56.118Z,48.77
2022-08-03T12:15:19.207Z,48.96
2022-08-03T12:17:42.286Z,48.78
2022-08-03T12:20:06.107Z,48.72
2022-08-03T12:22:32.534Z,48.70
2022-08-03T12:24:55.682Z,48.35
2022-08-03T12:27:26.598Z,48.52
2022-08-03T12:29:58.389Z,48.71
2022-08-03T12:32:21.934Z,48.37
2022-08-03T12:34:48.214Z,48.60
2022-08-03T12:37:22.301Z,48.71
2022-08-03T12:40:02.090Z,48.60
2022-08-03T12:42:32.593Z,48.76
2022-08-03T12:44:56.551Z,48.81
2022-08-03T12:47:19.820Z,49.20
2022-08-03T12:49:46.268Z,49.43
2022-08-03T12:52:10.527Z,49.22
2022-08-03T12:54:36.008Z,49.33
2022-08-03T12:56:59.475Z,49.20
2022-08-03T12:59:32.227Z,48.92
2022-08-03T13:01:58.255Z,48.39
2022-08-03T13:04:28.408Z,48.38
2022-08-03T13:06:57.986Z,48.17
2022-08-03T13:09:26.538Z,48.13
2022-08-03T13:12:01.846Z,48.29
2022-08-03T13:14:27.043Z,48.16
2022-08-03T13:16:50.107Z,48.18
2022-08-03T13:19:15.584Z,48.20
2022-08-03T13:22:01.659Z,47.99
2022-08-03T13:24:22.274Z,48.03
2022-08-03T13:26:45.282Z,48.00
2022-08-03T13:29:08.406Z,47.85
2022-08-03T13:31:32.839Z,47.61
2022-08-03T13:33:55.950Z,47.67
2022-08-03T13:36:18.931Z,47.82
2022-08-03T13:38:42.046Z,47.89
2022-08-03T13:41:05.722Z,48.06
2022-08-03T13:43:29.006Z,48.04
2022-08-03T13:45:56.523Z,48.02
2022-08-03T13:48:37.690Z,47.94
2022-08-03T13:51:05.318Z,48.00
2022-08-03T13:53:35.062Z,47.90
2022-08-03T13:55:58.122Z,47.61
2022-08-03T13:58:21.113Z,47.50
2022-08-03T14:00:44.240Z,47.61
2022-08-03T14:03:13.723Z,47.57
2022-08-03T14:05:39.388Z,47.61
2022-08-03T14:08:04.387Z,47.46
2022-08-03T14:10:28.062Z,47.38
2022-08-03T14:12:51.178Z,47.52
2022-08-03T14:15:14.614Z,47.64
2022-08-03T14:17:49.712Z,47.43
2022-08-03T14:20:38.959Z,47.40
2022-08-03T14:22:59.169Z,47.20
2022-08-03T14:25:22.201Z,47.39
2022-08-03T14:27:45.689Z,47.17
2022-08-03T14:30:09.215Z,47.27
2022-08-03T14:32:32.304Z,47.01
2022-08-03T14:34:55.307Z,47.22
2022-08-03T14:37:18.681Z,47.26
2022-08-03T14:39:59.954Z,47.26
2022-08-03T14:42:23.796Z,47.40
2022-08-03T14:44:46.785Z,47.09
2022-08-03T14:47:09.913Z,46.99
2022-08-03T14:50:38.923Z,46.79
2022-08-03T14:52:16.116Z,46.89
2022-08-03T14:54:39.111Z,46.86
2022-08-03T14:57:03.593Z,47.15
2022-08-03T14:59:26.674Z,47.25
2022-08-03T15:02:04.244Z,47.20
2022-08-03T15:04:29.646Z,47.16
2022-08-03T15:06:52.659Z,47.15
2022-08-03T15:09:23.641Z,47.13
2022-08-03T15:11:47.165Z,47.21
2022-08-03T15:14:13.575Z,47.42
2022-08-03T15:16:38.022Z,47.36
2022-08-03T15:19:01.018Z,47.37
2022-08-03T15:21:46.627Z,47.07
2022-08-03T15:24:07.277Z,47.12
2022-08-03T15:26:36.454Z,47.25
2022-08-03T15:29:02.750Z,47.35
2022-08-03T15:31:27.123Z,47.35
2022-08-03T15:33:50.781Z,47.48
2022-08-03T15:36:13.837Z,47.40
2022-08-03T15:38:36.883Z,47.50
2022-08-03T15:41:00.205Z,47.64
2022-08-03T15:43:23.309Z,47.71
2022-08-03T15:45:46.390Z,47.63
2022-08-03T15:48:10.878Z,47.90
2022-08-03T15:50:33.922Z,47.79
2022-08-03T15:52:57.004Z,47.89
2022-08-03T15:55:20.122Z,47.81
2022-08-03T15:59:03.204Z,47.97
2022-08-03T16:00:33.456Z,48.08
2022-08-03T16:02:57.534Z,47.92
2022-08-03T16:05:21.898Z,47.98
2022-08-03T16:08:03.642Z,48.17
2022-08-03T16:10:30.425Z,48.24
2022-08-03T16:12:53.438Z,48.06
2022-08-03T16:15:16.458Z,48.06
2022-08-03T16:17:39.532Z,48.18
2022-08-03T16:20:07.478Z,48.59
2022-08-03T16:22:35.242Z,48.52
2022-08-03T16:24:58.310Z,48.52
2022-08-03T16:27:37.657Z,48.43
2022-08-03T16:30:05.016Z,48.30
2022-08-03T16:32:28.038Z,48.28
2022-08-03T16:34:51.056Z,48.31
2022-08-03T16:37:36.925Z,48.48
2022-08-03T16:39:58.665Z,48.80
2022-08-03T16:42:21.711Z,48.79
2022-08-03T16:44:44.812Z,48.64
2022-08-03T16:47:07.976Z,48.48
2022-08-03T16:49:55.251Z,48.70
2022-08-03T16:52:19.538Z,48.63
2022-08-03T16:54:52.625Z,48.60
2022-08-03T16:57:29.756Z,48.31
2022-08-03T17:00:00.987Z,48.30
2022-08-03T17:02:26.198Z,48.65
2022-08-03T17:04:50.199Z,48.54
2022-08-03T17:07:13.358Z,48.80
2022-08-03T17:09:38.286Z,48.84
2022-08-03T17:12:01.655Z,48.59
2022-08-03T17:14:28.399Z,48.81
2022-08-03T17:16:54.085Z,48.66
2022-08-03T17:19:17.720Z,48.54
2022-08-03T17:21:41.917Z,48.60
2022-08-03T17:24:19.748Z,48.59
2022-08-03T17:26:43.597Z,48.85
2022-08-03T17:29:12.528Z,48.63
2022-08-03T17:31:49.605Z,49.20
2022-08-03T17:34:13.296Z,48.72
2022-08-03T17:37:02.587Z,48.61
2022-08-03T17:39:35.765Z,48.81
2022-08-03T17:42:05.394Z,48.80
2022-08-03T17:44:48.467Z,48.59
2022-08-03T17:47:13.430Z,48.51
2022-08-03T17:49:42.262Z,48.53
2022-08-03T17:52:06.687Z,48.44
2022-08-03T17:54:36.929Z,48.49
2022-08-03T17:57:22.369Z,48.56
2022-08-03T17:59:52.710Z,48.45
2022-08-03T18:02:47.642Z,49.34
2022-08-03T18:05:16.458Z,50.13
2022-08-03T18:07:41.576Z,50.50
2022-08-03T18:10:11.449Z,50.50
2022-08-03T18:12:41.683Z,50.77
2022-08-03T18:15:08.609Z,51.78
2022-08-03T18:17:58.273Z,51.88
2022-08-03T18:20:32.671Z,51.93
2022-08-03T18:23:05.002Z,51.82
2022-08-03T18:25:43.001Z,51.94
2022-08-03T18:28:11.818Z,51.87
2022-08-03T18:30:38.880Z,51.84
2022-08-03T18:34:18.878Z,51.66
2022-08-03T18:36:02.389Z,52.18
2022-08-03T18:38:26.465Z,52.19
2022-08-03T18:40:49.738Z,52.56
2022-08-03T18:43:12.760Z,52.93
2022-08-03T18:45:56.132Z,52.65
2022-08-03T18:48:22.514Z,52.78
2022-08-03T18:50:50.867Z,52.96
2022-08-03T18:53:16.569Z,52.86
2022-08-03T18:55:52.220Z,52.81
2022-08-03T18:58:26.681Z,52.56
2022-08-03T19:00:54.749Z,52.77
2022-08-03T19:03:23.099Z,52.95
2022-08-03T19:05:56.558Z,52.45
2022-08-03T19:08:30.731Z,51.77
2022-08-03T19:10:57.942Z,51.58
2022-08-03T19:13:30.767Z,50.99
2022-08-03T19:15:54.186Z,51.36
2022-08-03T19:18:17.434Z,51.77
2022-08-03T19:20:42.659Z,52.00
2022-08-03T19:23:11.226Z,52.15
2022-08-03T19:25:35.340Z,52.53
2022-08-03T19:27:58.812Z,52.46
2022-08-03T19:30:40.452Z,52.27
2022-08-03T19:33:03.866Z,52.54
2022-08-03T19:35:51.754Z,52.42
2022-08-03T19:38:13.418Z,52.24
2022-08-03T19:40:38.293Z,52.20
2022-08-03T19:43:07.151Z,52.69
2022-08-03T19:46:04.507Z,52.52
2022-08-03T19:48:18.997Z,52.23
2022-08-03T19:50:45.218Z,52.47
2022-08-03T19:53:10.222Z,52.67
2022-08-03T19:55:37.746Z,52.18
2022-08-03T19:58:02.504Z,52.50
2022-08-03T20:03:18.238Z,52.18
2022-08-03T20:05:52.337Z,51.97
2022-08-03T20:08:17.383Z,52.29
2022-08-03T20:10:45.099Z,52.86
2022-08-03T20:13:11.035Z,53.04
2022-08-03T20:15:42.377Z,53.00
2022-08-03T20:18:05.447Z,53.29
2022-08-03T20:20:39.797Z,52.53
2022-08-03T20:23:06.955Z,52.70
2022-08-03T20:25:37.636Z,53.34
2022-08-03T20:28:05.959Z,53.50
2022-08-03T20:30:31.354Z,53.79
2022-08-03T20:32:54.575Z,53.53
2022-08-03T20:35:17.626Z,53.36
2022-08-03T20:37:40.766Z,53.17
2022-08-03T20:40:05.978Z,53.85
2022-08-03T20:42:29.274Z,53.30
2022-08-03T20:45:05.695Z,53.44
2022-08-03T20:47:29.963Z,53.34
2022-08-03T20:49:53.576Z,53.44
2022-08-03T20:52:18.524Z,53.23
2022-08-03T20:54:42.267Z,53.24
2022-08-03T20:57:09.548Z,53.23
2022-08-03T20:59:47.136Z,53.60
2022-08-03T21:02:11.986Z,53.76
2022-08-03T21:04:43.602Z,53.89
2022-08-03T21:07:16.712Z,53.64
2022-08-03T21:12:37.302Z,53.32
2022-08-03T21:13:08.101Z,52.69
2022-08-03T21:13:10.710Z,52.77
2022-08-03T21:15:05.345Z,53.07
2022-08-03T21:17:41.304Z,52.75
2022-08-03T21:20:07.459Z,53.30
2022-08-03T21:22:30.883Z,53.19
2022-08-03T21:24:54.467Z,52.83
2022-08-03T21:27:19.156Z,53.48
2022-08-03T21:29:52.912Z,53.33
2022-08-03T21:32:26.469Z,53.66
2022-08-03T21:34:57.876Z,53.90
2022-08-03T21:37:21.113Z,53.91
2022-08-03T21:39:50.812Z,54.06
2022-08-03T21:42:14.218Z,54.15
2022-08-03T21:44:37.295Z,54.11
2022-08-03T21:47:00.389Z,54.17
2022-08-03T21:50:04.884Z,53.99
2022-08-03T21:52:07.930Z,53.48
2022-08-03T21:54:32.398Z,53.40
2022-08-03T21:56:55.443Z,53.51
2022-08-03T21:59:19.025Z,54.21
2022-08-03T22:01:42.163Z,54.54
2022-08-03T22:04:06.925Z,54.86
2022-08-03T22:06:30.235Z,54.78
2022-08-03T22:08:54.696Z,55.17
2022-08-03T22:11:17.810Z,54.25
2022-08-03T22:13:44.325Z,53.84
2022-08-03T22:16:07.727Z,54.17
2022-08-03T22:18:30.782Z,54.21
2022-08-03T22:20:53.885Z,53.71
2022-08-03T22:23:20.994Z,53.23
2022-08-03T22:25:45.838Z,53.08
2022-08-03T22:28:09.446Z,52.85
2022-08-03T22:30:33.236Z,52.33
2022-08-03T22:32:57.712Z,52.09
2022-08-03T22:35:21.583Z,51.99
2022-08-03T22:37:44.721Z,52.36
2022-08-03T22:40:12.145Z,51.70
2022-08-03T22:42:36.621Z,51.77
2022-08-03T22:44:59.680Z,51.58
2022-08-03T22:47:23.244Z,52.02
2022-08-03T22:49:46.754Z,51.28
2022-08-03T22:52:30.154Z,51.38
2022-08-03T22:54:53.290Z,52.61
2022-08-03T22:57:16.300Z,52.84
2022-08-03T22:59:42.126Z,52.67
2022-08-03T23:02:20.517Z,52.69
2022-08-03T23:04:45.247Z,52.62
2022-08-03T23:07:09.279Z,52.94
2022-08-03T23:09:32.546Z,53.91
2022-08-03T23:11:55.983Z,54.17
2022-08-03T23:14:19.749Z,54.28
2022-08-03T23:16:44.756Z,54.41
2022-08-03T23:19:17.125Z,54.65
2022-08-03T23:22:00.154Z,54.22
2022-08-03T23:24:25.333Z,54.61
2022-08-03T23:26:52.790Z,54.26
2022-08-03T23:29:15.829Z,54.34
2022-08-03T23:31:38.997Z,53.72
2022-08-03T23:34:24.313Z,54.45
2022-08-03T23:36:48.736Z,54.08
2022-08-03T23:39:11.884Z,54.77
2022-08-03T23:41:34.917Z,55.10
2022-08-03T23:43:57.963Z,54.93
2022-08-03T23:46:21.173Z,55.00
2022-08-03T23:48:44.250Z,54.87
2022-08-03T23:51:10.846Z,54.92
2022-08-03T23:53:39.769Z,54.54
2022-08-03T23:56:11.645Z,54.59
2022-08-03T23:58:39.530Z,53.84
